Time;durP1;ratioP1;P1;durP2;ratioP2;P2;SDS_P1;SDS_P2;PMS_P1;PMS_P2;Temp;Humidity;BMP_temperature;BMP_pressure;BME280_temperature;BME280_humidity;BME280_pressure;Samples;Min_cycle;Max_cycle;Signal;HPM_P1;HPM_P2
2022/02/03 00:04:30;;;;;;;1999.90;999.90;;;;;;;1.64;100.00;162834.19;5012734;28;20070;-68
2022/02/03 00:07:03;;;;;;;1999.90;999.90;;;;;;;1.32;100.00;162750.69;5012280;28;20049;-68
2022/02/03 00:25:32;;;;;;;1999.90;999.90;;;;;;;1.42;100.00;162775.38;5015357;28;20060;-68
2022/02/03 00:28:28;;;;;;;1999.90;999.90;;;;;;;1.11;100.00;162693.25;5014030;28;20112;-69
2022/02/03 00:33:46;;;;;;;1999.90;999.90;;;;;;;1.28;100.00;162739.78;5017853;28;20112;-69
2022/02/03 00:36:26;;;;;;;1999.90;999.90;;;;;;;0.96;100.00;162653.56;5011759;28;20058;-68
2022/02/03 00:52:22;;;;;;;1999.90;999.90;;;;;;;1.10;100.00;162690.50;5011534;28;20085;-68
2022/02/03 00:54:49;;;;;;;1999.90;999.90;;;;;;;0.97;100.00;162656.28;5019259;28;20063;-68
2022/02/03 00:57:24;;;;;;;1999.90;999.90;;;;;;;1.21;100.00;162721.97;5018587;28;20054;-68
2022/02/03 01:00:00;;;;;;;1999.90;999.90;;;;;;;1.08;100.00;162686.41;5017839;28;20459;-68
2022/02/03 01:02:29;;;;;;;1999.90;999.90;;;;;;;0.93;100.00;162646.72;5013262;28;20068;-68
2022/02/03 01:04:59;;;;;;;1999.90;999.90;;;;;;;1.13;100.00;162698.72;5022020;28;20057;-68
2022/02/03 01:07:31;;;;;;;1999.90;999.90;;;;;;;0.87;100.00;162631.66;5021249;28;20045;-68
2022/02/03 01:10:05;;;;;;;1999.90;999.90;;;;;;;0.75;100.00;162597.50;5017213;28;20053;-68
2022/02/03 01:15:18;;;;;;;1999.90;999.90;;;;;;;1.21;100.00;162720.63;5020020;28;20042;-68
2022/02/03 01:34:58;;;;;;;1999.90;999.90;;;;;;;0.60;100.00;162557.84;5016005;28;20045;-68
2022/02/03 01:53:45;;;;;;;1999.90;999.90;;;;;;;0.46;100.00;162522.28;5022625;28;19952;-68
2022/02/03 01:56:22;;;;;;;1999.90;999.90;;;;;;;0.40;100.00;162504.47;5017650;28;20104;-68
2022/02/03 01:58:53;;;;;;;1999.90;999.90;;;;;;;0.55;100.00;162545.47;5018876;28;20050;-68
2022/02/03 02:01:29;;;;;;;1999.90;999.90;;;;;;;0.71;100.00;162587.91;5026164;28;20065;-68
2022/02/03 02:04:07;;;;;;;1999.90;999.90;;;;;;;0.77;100.00;162602.94;5027685;28;20552;-68
2022/02/03 02:06:51;;;;;;;1999.90;999.90;;;;;;;0.87;100.00;162630.31;5017206;28;20100;-68
2022/02/03 02:09:48;;;;;;;1999.90;999.90;;;;;;;0.54;100.00;162542.78;5025767;28;20049;-68
2022/02/03 02:13:09;;;;;;;1999.90;999.90;;;;;;;0.41;100.00;162507.22;5015541;28;20100;-68
2022/02/03 02:44:02;;;;;;;1999.90;999.90;;;;;;;1.21;100.00;162721.97;5015833;28;20057;-68
2022/02/03 02:46:44;;;;;;;1999.90;999.90;;;;;;;0.90;100.00;162637.16;5022822;28;20046;-68
2022/02/03 02:49:19;;;;;;;;;;;;;;;1.13;100.00;162698.72;5012633;28;20095;-69
2022/02/03 02:52:02;;;;;;;1999.90;999.90;;;;;;;0.74;100.00;162594.75;5028358;28;19947;-68
2022/02/03 02:54:57;;;;;;;1999.90;999.90;;;;;;;0.91;100.00;162641.28;5012417;28;20046;-67
2022/02/03 03:35:55;;;;;;;1999.90;999.90;;;;;;;3.16;94.97;163240.94;5011643;28;20447;-67
2022/02/03 03:38:29;;;;;;;1999.90;999.90;;;;;;;3.33;94.45;163284.78;5022301;28;20450;-68
2022/02/03 03:40:57;;;;;;;1999.90;999.90;;;;;;;3.34;94.21;163287.56;5017386;28;20046;-68
2022/02/03 03:43:44;;;;;;;1999.90;999.90;;;;;;;3.32;94.23;163282.03;5013870;28;20053;-68
2022/02/03 03:46:19;;;;;;;1999.90;999.90;;;;;;;3.07;94.45;163214.94;5012229;28;20099;-68
2022/02/03 03:48:58;;;;;;;1999.90;999.90;;;;;;;2.72;95.92;163121.75;5011393;28;20050;-68
2022/02/03 03:51:49;;;;;;;1999.90;999.90;;;;;;;2.53;97.05;163071.06;5011420;28;20080;-68
2022/02/03 03:54:33;;;;;;;1999.90;999.90;;;;;;;2.59;97.45;163087.50;5009647;28;20439;-68
2022/02/03 03:57:17;;;;;;;1999.90;999.90;;;;;;;2.36;97.97;163027.25;5013334;28;20096;-68
2022/02/03 04:57:01;;;;;;;1999.90;999.90;;;;;;;2.48;97.63;163058.75;5016161;28;20104;-67
2022/02/03 05:03:30;;;;;;;1999.90;999.90;;;;;;;2.23;98.42;162993.03;5008495;28;20100;-67
2022/02/03 05:33:59;;;;;;;1999.90;999.90;;;;;;;2.60;97.53;163091.59;5010122;28;20045;-67
2022/02/03 05:42:08;;;;;;;1999.90;999.90;;;;;;;2.82;97.59;163149.16;5018397;28;20119;-67
2022/02/03 05:48:23;;;;;;;1999.90;999.90;;;;;;;2.55;98.36;163076.56;5019904;28;20057;-67
2022/02/03 05:51:28;;;;;;;1999.90;999.90;;;;;;;2.58;98.19;163086.16;5006685;28;20508;-67
2022/02/03 06:15:22;;;;;;;1999.90;999.90;;;;;;;3.20;96.77;163249.16;5010709;28;20053;-68
2022/02/03 06:21:23;;;;;;;1999.90;999.90;;;;;;;2.84;98.35;163153.28;5008723;28;20336;-68
2022/02/03 06:23:50;;;;;;;1999.90;999.90;;;;;;;2.84;99.21;163153.28;5006969;28;20062;-68
2022/02/03 06:29:09;;;;;;;1999.90;999.90;;;;;;;2.96;98.81;163186.13;5009182;28;20046;-68
2022/02/03 06:31:42;;;;;;;1999.90;999.90;;;;;;;3.09;98.55;163220.41;5008854;28;20103;-67
2022/02/03 06:34:10;;;;;;;1999.90;999.90;;;;;;;3.03;98.64;163205.31;5010649;28;20064;-67
2022/02/03 06:36:38;;;;;;;1999.90;999.90;;;;;;;2.80;100.00;163145.06;5006843;28;20050;-67
2022/02/03 06:39:16;;;;;;;1999.90;999.90;;;;;;;2.86;99.69;163158.72;5009988;28;20417;-67
2022/02/03 06:41:43;;;;;;;1999.90;999.90;;;;;;;2.95;99.60;163183.44;5028282;28;20053;-67
2022/02/03 06:44:12;;;;;;;1999.90;999.90;;;;;;;2.96;99.34;163186.13;5012240;28;20443;-67
2022/02/03 06:46:44;;;;;;;1999.90;999.90;;;;;;;3.10;99.08;163224.50;5016003;28;20049;-67
2022/02/03 06:52:04;;;;;;;1999.90;999.90;;;;;;;2.89;99.65;163166.94;5014128;28;20061;-67
2022/02/03 06:54:46;;;;;;;1999.90;999.90;;;;;;;3.03;99.46;163203.97;5012879;28;20053;-67
2022/02/03 06:57:18;;;;;;;;;;;;;;;3.10;99.26;163224.50;5017201;28;20494;-68
2022/02/03 06:59:59;;;;;;;1999.90;999.90;;;;;;;2.91;99.51;163172.47;5014195;28;19952;-68
2022/02/03 07:02:29;;;;;;;1999.90;999.90;;;;;;;2.90;99.99;163169.69;5010929;28;20100;-68
2022/02/03 07:04:57;;;;;;;1999.90;999.90;;;;;;;3.24;99.29;163261.50;5013189;28;20054;-68
2022/02/03 07:07:25;;;;;;;1999.90;999.90;;;;;;;3.49;98.09;163328.66;5011711;28;20429;-68
2022/02/03 07:09:53;;;;;;;1999.90;999.90;;;;;;;3.43;98.03;163312.22;5015397;28;20064;-68
2022/02/03 07:12:21;;;;;;;1999.90;999.90;;;;;;;3.29;98.55;163275.22;5013948;28;20046;-68
2022/02/03 07:14:48;;;;;;;1999.90;999.90;;;;;;;3.48;98.55;163325.94;5028855;28;20127;-68
2022/02/03 07:17:15;;;;;;;1999.90;999.90;;;;;;;3.63;97.75;163364.28;5011898;28;20049;-68
2022/02/03 07:19:53;;;;;;;1999.90;999.90;;;;;;;3.81;97.41;163413.66;5014550;28;20062;-68
2022/02/03 07:22:20;;;;;;;1999.90;999.90;;;;;;;3.70;97.15;163383.50;5017601;28;20041;-68
2022/02/03 07:24:51;;;;;;;1999.90;999.90;;;;;;;3.80;96.90;163410.91;5012937;28;20112;-68
2022/02/03 07:27:20;;;;;;;1999.90;999.90;;;;;;;3.87;97.04;163428.72;5013281;28;20449;-69
2022/02/03 07:29:48;;;;;;;1999.90;999.90;;;;;;;3.61;97.42;163358.81;5013192;28;20387;-68
2022/02/03 07:32:16;;;;;;;1999.90;999.90;;;;;;;3.64;97.76;163368.41;5012729;28;20120;-68
2022/02/03 07:34:42;;;;;;;1999.90;999.90;;;;;;;3.37;97.81;163294.41;5027848;28;20108;-68
2022/02/03 07:37:09;;;;;;;1999.90;999.90;;;;;;;3.24;98.03;163260.16;5012975;28;20046;-68
2022/02/03 07:39:37;;;;;;;1999.90;999.90;;;;;;;3.46;98.97;163320.44;5011686;28;20104;-68
2022/02/03 07:42:04;;;;;;;1999.90;999.90;;;;;;;3.62;97.70;163361.59;5011668;28;20402;-68
2022/02/03 07:44:30;;;;;;;1999.90;999.90;;;;;;;3.42;97.65;163309.47;5011772;28;20403;-68
2022/02/03 07:46:57;;;;;;;1999.90;999.90;;;;;;;3.27;98.17;163268.38;5028103;28;20049;-68
2022/02/03 07:49:23;;;;;;;1999.90;999.90;;;;;;;2.98;99.31;163193.00;5010941;28;20057;-68
2022/02/03 07:51:50;;;;;;;1999.90;999.90;;;;;;;2.53;100.00;163072.47;5020137;28;20050;-68
2022/02/03 07:54:16;;;;;;;1999.90;999.90;;;;;;;2.79;100.00;163140.94;5022704;28;20050;-68
2022/02/03 07:56:43;;;;;;;1999.90;999.90;;;;;;;2.86;100.00;163158.72;5025014;28;20418;-67
2022/02/03 07:59:09;;;;;;;1999.90;999.90;;;;;;;2.95;100.00;163184.78;5028575;28;20060;-67
2022/02/03 08:01:36;;;;;;;1999.90;999.90;;;;;;;3.09;100.00;163221.75;5011658;28;20108;-67
2022/02/03 08:04:05;;;;;;;1999.90;999.90;;;;;;;3.49;98.88;163327.31;5011589;28;20045;-67
2022/02/03 08:06:36;;;;;;;1999.90;999.90;;;;;;;3.38;99.42;163298.53;5011337;28;20046;-67
2022/02/03 08:09:08;;;;;;;1999.90;999.90;;;;;;;3.30;99.66;163276.56;5014227;28;20424;-68
2022/02/03 08:11:40;;;;;;;;;;;;;;;2.98;100.00;163193.00;5021584;28;20062;-68
2022/02/03 08:14:14;;;;;;;1999.90;999.90;;;;;;;2.97;100.00;163190.25;5009172;28;20402;-68
2022/02/03 08:17:06;;;;;;;1999.90;999.90;;;;;;;2.84;100.00;163153.28;5027185;28;20085;-68
2022/02/03 08:19:40;;;;;;;1999.90;999.90;;;;;;;2.38;100.00;163032.75;5011204;28;20104;-68
2022/02/03 08:22:10;;;;;;;1999.90;999.90;;;;;;;2.99;100.00;163194.34;5010503;28;20248;-68
2022/02/03 08:24:52;;;;;;;1999.90;999.90;;;;;;;3.21;100.00;163251.91;5019344;28;20405;-68
2022/02/03 08:32:34;;;;;;;1999.90;999.90;;;;;;;2.82;100.00;163150.50;5018372;28;20053;-68
2022/02/03 08:37:43;;;;;;;1999.90;999.90;;;;;;;3.40;100.00;163304.00;5011108;28;20046;-68
2022/02/03 08:40:15;;;;;;;1999.90;999.90;;;;;;;3.35;99.30;163290.31;5026648;28;20107;-68
2022/02/03 08:42:42;;;;;;;1999.90;999.90;;;;;;;3.30;99.88;163276.56;5023085;28;20446;-68
2022/02/03 08:45:08;;;;;;;1999.90;999.90;;;;;;;3.11;100.00;163227.28;5014298;28;20054;-68
2022/02/03 08:47:35;;;;;;;1999.90;999.90;;;;;;;3.60;98.86;163357.41;5011951;28;20069;-68
2022/02/03 08:50:04;;;;;;;1999.90;999.90;;;;;;;3.86;98.26;163427.34;5016044;28;20504;-68
2022/02/03 08:52:39;;;;;;;1999.90;999.90;;;;;;;3.79;97.97;163406.81;5010892;28;20081;-68
2022/02/03 08:55:22;;;;;;;1999.90;999.90;;;;;;;3.56;98.96;163345.09;5027035;28;20401;-68
2022/02/03 09:00:43;;;;;;;1999.90;999.90;;;;;;;3.41;99.56;163306.75;5013600;28;20045;-68
2022/02/03 09:58:16;;;;;;;1999.90;999.90;;;;;;;3.76;96.81;163398.59;5014039;28;20410;-68
2022/02/03 10:01:05;;;;;;;1999.90;999.90;;;;;;;3.64;95.61;163368.41;5007434;28;20077;-70
2022/02/03 10:06:09;;;;;;;1999.90;999.90;;;;;;;3.48;96.49;163324.53;5023199;28;20140;-70
2022/02/03 10:08:37;;;;;;;1999.90;999.90;;;;;;;4.23;94.61;163524.72;5009861;28;20129;-71
2022/02/03 10:11:17;;;;;;;1999.90;999.90;;;;;;;4.90;92.44;163703.03;5015152;28;20323;-71
2022/02/03 10:13:47;;;;;;;1999.90;999.90;;;;;;;5.00;92.72;163729.09;5011205;28;20095;-71
2022/02/03 10:16:16;;;;;;;1999.90;999.90;;;;;;;4.68;93.80;163645.41;5012886;28;20049;-70
2022/02/03 10:18:44;;;;;;;1999.90;999.90;;;;;;;4.56;91.47;163613.84;5013441;28;20119;-70
2022/02/03 10:21:15;;;;;;;1999.90;999.90;;;;;;;4.55;91.72;163611.09;5013922;28;20050;-70
2022/02/03 10:23:52;;;;;;;;;;;;;;;4.98;91.85;163724.97;5026670;28;20054;-70
2022/02/03 10:26:19;;;;;;;1999.90;999.90;;;;;;;5.40;90.02;163836.13;5015264;28;19964;-70
2022/02/03 10:28:55;;;;;;;1999.90;999.90;;;;;;;5.80;87.28;163943.19;5015234;28;20089;-70
2022/02/03 10:31:38;;;;;;;1999.90;999.90;;;;;;;5.26;87.20;163800.44;5015600;28;20503;-69
2022/02/03 10:34:13;;;;;;;1999.90;999.90;;;;;;;5.14;88.65;163766.16;5013941;28;20339;-69
2022/02/03 10:36:54;;;;;;;1999.90;999.90;;;;;;;5.73;87.19;163923.97;5013479;28;20048;-69
2022/02/03 10:56:26;;;;;;;1999.90;999.90;;;;;;;5.27;83.48;163801.84;5013896;28;20057;-69
2022/02/03 11:11:38;;;;;;;1999.90;999.90;;;;;;;4.62;85.43;163627.59;5028330;28;20053;-67
2022/02/03 11:14:04;;;;;;;1999.90;999.90;;;;;;;5.11;83.20;163759.28;5013716;28;20443;-68
2022/02/03 11:16:38;;;;;;;1999.90;999.90;;;;;;;5.41;83.05;163838.88;5014395;28;20501;-67
2022/02/03 11:19:09;;;;;;;1999.90;999.90;;;;;;;5.41;82.46;163838.88;5013893;28;20123;-67
2022/02/03 11:21:36;;;;;;;1999.90;999.90;;;;;;;5.13;82.71;163764.75;5013924;28;20054;-67
2022/02/03 11:24:17;;;;;;;1999.90;999.90;;;;;;;5.57;82.80;163882.81;5027142;28;20052;-68
2022/02/03 11:50:51;;;;;;;1999.90;999.90;;;;;;;5.29;78.62;163807.31;5015691;28;20091;-69
2022/02/03 11:53:39;;;;;;;1999.90;999.90;;;;;;;4.63;80.82;163630.31;5026454;28;20541;-68
2022/02/03 11:59:11;;;;;;;1999.90;999.90;;;;;;;5.42;81.81;163841.66;5025970;28;19925;-68
2022/02/03 12:04:34;;;;;;;1999.90;999.90;;;;;;;6.12;78.84;164028.41;5015156;28;20053;-68
2022/02/03 12:07:29;;;;;;;1999.90;999.90;;;;;;;6.17;78.45;164043.47;5021853;28;20180;-67
2022/02/03 12:10:47;;;;;;;1999.90;999.90;;;;;;;5.33;80.76;163816.91;5026836;28;20120;-67
2022/02/03 12:13:51;;;;;;;1999.90;999.90;;;;;;;5.73;79.55;163923.97;5012455;28;20450;-67
2022/02/03 12:21:47;;;;;;;1999.90;999.90;;;;;;;5.68;78.82;163911.63;5024567;28;20092;-67
2022/02/03 12:24:33;;;;;;;1999.90;999.90;;;;;;;5.39;79.03;163833.38;5020427;28;20447;-66
2022/02/03 12:27:12;;;;;;;1999.90;999.90;;;;;;;5.67;78.64;163907.50;5011526;28;20124;-66
2022/02/03 12:29:53;;;;;;;1999.90;999.90;;;;;;;5.08;77.48;163751.06;5012252;28;20042;-66
2022/02/03 12:33:16;;;;;;;1999.90;999.90;;;;;;;5.34;75.37;163821.03;5015393;28;20049;-66
2022/02/03 12:43:02;;;;;;;1999.90;999.90;;;;;;;6.11;77.50;164025.63;5022551;28;20516;-66
2022/02/03 12:45:30;;;;;;;1999.90;999.90;;;;;;;6.04;76.93;164006.41;5022367;28;20422;-66
2022/02/03 12:48:01;;;;;;;1999.90;999.90;;;;;;;5.68;75.63;163910.25;5011428;28;20104;-67
2022/02/03 12:50:34;;;;;;;1999.90;999.90;;;;;;;5.70;75.66;163917.13;5011776;28;20091;-66
2022/02/03 12:53:03;;;;;;;1999.90;999.90;;;;;;;5.47;76.31;163855.34;5029379;28;20049;-67
2022/02/03 12:55:33;;;;;;;1999.90;999.90;;;;;;;5.46;77.73;163852.59;5014602;28;20054;-66
2022/02/03 12:58:04;;;;;;;1999.90;999.90;;;;;;;5.88;77.05;163963.78;5016844;28;20045;-66
2022/02/03 13:00:48;;;;;;;1999.90;999.90;;;;;;;5.38;78.04;163830.66;5010373;28;20050;-66
2022/02/03 13:03:28;;;;;;;1999.90;999.90;;;;;;;5.37;76.77;163827.88;5014911;28;20060;-66
2022/02/03 13:06:05;;;;;;;1999.90;999.90;;;;;;;5.22;77.17;163788.09;5026733;28;20782;-66
2022/02/03 13:08:37;;;;;;;1999.90;999.90;;;;;;;5.19;77.71;163781.22;5011281;28;20046;-66
2022/02/03 13:11:16;;;;;;;1999.90;999.90;;;;;;;5.02;77.96;163734.59;5013965;28;20439;-66
2022/02/03 13:17:00;;;;;;;1999.90;999.90;;;;;;;5.16;77.94;163773.00;4985325;28;20054;-66
2022/02/03 13:19:57;;;;;;;1999.90;999.90;;;;;;;5.29;76.81;163808.66;5011571;28;20140;-66
2022/02/03 13:28:30;;;;;;;1999.90;999.90;;;;;;;5.89;75.85;163967.88;5009173;28;20392;-66
2022/02/03 13:30:50;;;;;;;1999.90;999.90;;;;;;;6.34;73.92;164088.81;5019689;28;20053;-66
2022/02/03 13:33:24;;;;;;;1999.90;999.90;;;;;;;5.97;74.43;163989.94;5023127;28;20099;-66
2022/02/03 13:36:01;;;;;;;1999.90;999.90;;;;;;;6.25;75.02;164064.09;5010613;28;20045;-66
2022/02/03 13:41:12;;;;;;;1999.90;999.90;;;;;;;5.93;76.38;163978.88;5023256;28;20065;-66
2022/02/03 13:43:40;;;;;;;1999.90;999.90;;;;;;;5.49;78.62;163860.81;5013404;28;20092;-66
2022/02/03 13:46:08;;;;;;;1999.90;999.90;;;;;;;5.77;78.22;163934.97;5010921;28;20072;-66
2022/02/03 13:48:37;;;;;;;1999.90;999.90;;;;;;;6.02;78.15;164000.94;5012841;28;20050;-66
2022/02/03 13:51:08;;;;;;;1999.90;999.90;;;;;;;6.22;77.88;164055.81;5022347;28;20449;-66
2022/02/03 13:53:49;;;;;;;1999.90;999.90;;;;;;;6.48;76.00;164125.88;5016902;28;20324;-66
2022/02/03 14:16:11;;;;;;;1999.90;999.90;;;;;;;5.88;75.93;163965.19;5028784;28;20054;-66
2022/02/03 14:21:46;;;;;;;1999.90;999.90;;;;;;;5.27;78.29;163803.19;5012700;28;20045;-67
2022/02/03 14:27:25;;;;;;;1999.90;999.90;;;;;;;5.12;79.87;163762.00;5019877;28;20114;-67
2022/02/03 14:29:58;;;;;;;1999.90;999.90;;;;;;;5.23;80.76;163790.84;5029393;28;20521;-67
2022/02/03 14:32:30;;;;;;;1999.90;999.90;;;;;;;5.50;80.14;163863.56;5026089;28;20377;-67
2022/02/03 14:34:57;;;;;;;1999.90;999.90;;;;;;;5.65;79.72;163903.38;5025202;28;20104;-67
2022/02/03 14:42:21;;;;;;;1999.90;999.90;;;;;;;5.07;82.12;163748.31;5011225;28;20042;-67
2022/02/03 14:44:48;;;;;;;1999.90;999.90;;;;;;;5.62;80.98;163896.50;5025750;28;20049;-67
2022/02/03 14:47:16;;;;;;;1999.90;999.90;;;;;;;5.60;80.08;163889.69;5019730;28;20049;-68
2022/02/03 14:49:45;;;;;;;1999.90;999.90;;;;;;;5.26;81.68;163800.44;5019256;28;20061;-67
2022/02/03 14:52:22;;;;;;;1999.90;999.90;;;;;;;4.92;82.71;163708.50;5013082;28;20054;-67
2022/02/03 15:00:23;;;;;;;1999.90;999.90;;;;;;;4.49;85.82;163593.28;5010078;28;20360;-67
2022/02/03 15:02:50;;;;;;;1999.90;999.90;;;;;;;4.40;87.16;163571.31;5010993;28;20143;-67
2022/02/03 15:05:27;;;;;;;1999.90;999.90;;;;;;;4.81;86.04;163679.72;5014590;28;20307;-67
2022/02/03 15:07:58;;;;;;;1999.90;999.90;;;;;;;4.26;87.60;163532.94;5010159;28;20096;-67
2022/02/03 15:13:07;;;;;;;1999.90;999.90;;;;;;;4.40;88.35;163571.31;5009175;28;20054;-67
2022/02/03 15:15:34;;;;;;;1999.90;999.90;;;;;;;4.36;88.05;163558.97;5010153;28;20101;-67
2022/02/03 15:18:00;;;;;;;1999.90;999.90;;;;;;;4.50;87.72;163596.03;5012426;28;20054;-67
2022/02/03 15:20:27;;;;;;;1999.90;999.90;;;;;;;4.66;87.36;163638.53;5013888;28;20045;-67
2022/02/03 15:22:54;;;;;;;1999.90;999.90;;;;;;;4.78;86.89;163671.50;5011417;28;20046;-67
2022/02/03 15:25:20;;;;;;;1999.90;999.90;;;;;;;4.67;86.98;163641.28;5018863;28;20065;-67
2022/02/03 15:27:47;;;;;;;1999.90;999.90;;;;;;;4.93;86.38;163712.63;5025830;28;20068;-67
2022/02/03 15:30:15;;;;;;;1999.90;999.90;;;;;;;4.67;87.63;163641.28;5023450;28;21004;-68
2022/02/03 15:32:43;;;;;;;1999.90;999.90;;;;;;;4.75;87.13;163664.63;5011902;28;20143;-67
2022/02/03 15:35:18;;;;;;;1999.90;999.90;;;;;;;4.82;86.92;163681.06;5018003;28;20071;-67
2022/02/03 15:37:46;;;;;;;1999.90;999.90;;;;;;;4.76;87.59;163665.97;5016183;28;20052;-67
2022/02/03 15:40:18;;;;;;;1999.90;999.90;;;;;;;4.36;89.24;163558.97;5007310;28;20123;-67
2022/02/03 15:45:24;;;;;;;1999.90;999.90;;;;;;;4.08;90.40;163484.97;5020313;28;20045;-67
2022/02/03 15:47:58;;;;;;;1999.90;999.90;;;;;;;4.19;90.64;163515.09;5014587;28;20057;-68
2022/02/03 16:01:42;;;;;;;1999.90;999.90;;;;;;;3.97;89.57;163454.78;5016818;28;20095;-67
2022/02/03 16:17:43;;;;;;;1999.90;999.90;;;;;;;4.26;87.30;163531.53;5014667;28;20379;-66
2022/02/03 16:20:17;;;;;;;1999.90;999.90;;;;;;;3.94;87.88;163447.91;5008978;28;20504;-66
2022/02/03 16:22:57;;;;;;;1999.90;999.90;;;;;;;4.00;88.02;163463.00;5008438;28;20058;-67
2022/02/03 16:26:24;;;;;;;1999.90;999.90;;;;;;;3.69;88.88;163382.13;5011537;28;20096;-67
2022/02/03 16:51:01;;;;;;;1999.90;999.90;;;;;;;4.79;84.87;163672.84;4984026;28;20047;-67
2022/02/03 16:53:28;;;;;;;1999.90;999.90;;;;;;;5.16;83.08;163771.63;4988485;28;20042;-67
2022/02/03 16:55:57;;;;;;;1999.90;999.90;;;;;;;4.96;83.20;163719.50;4999983;28;20826;-67
2022/02/03 16:58:24;;;;;;;1999.90;999.90;;;;;;;4.99;83.30;163727.72;5014105;28;20080;-67
2022/02/03 17:00:50;;;;;;;1999.90;999.90;;;;;;;5.23;82.22;163792.22;5015444;28;20046;-67
2022/02/03 17:03:17;;;;;;;1999.90;999.90;;;;;;;5.14;82.26;163767.53;5011258;28;20046;-67
2022/02/03 17:05:46;;;;;;;1999.90;999.90;;;;;;;4.77;83.22;163668.72;5010802;28;20350;-68
2022/02/03 17:08:13;;;;;;;1999.90;999.90;;;;;;;4.66;83.47;163638.53;5009364;28;20054;-66
2022/02/03 17:10:40;;;;;;;1999.90;999.90;;;;;;;4.76;82.94;163665.97;5010932;28;20371;-67
2022/02/03 17:13:06;;;;;;;1999.90;999.90;;;;;;;4.67;83.29;163642.66;5009858;28;20108;-66
2022/02/03 17:15:34;;;;;;;1999.90;999.90;;;;;;;5.05;81.79;163742.84;5010781;28;20050;-66
2022/02/03 17:18:01;;;;;;;1999.90;999.90;;;;;;;4.95;81.69;163716.75;5010289;28;20262;-66
2022/02/03 17:20:30;;;;;;;1999.90;999.90;;;;;;;4.84;81.95;163687.94;5010554;28;20042;-66
2022/02/03 17:22:58;;;;;;;1999.90;999.90;;;;;;;4.94;81.46;163713.97;5007535;28;20054;-67
2022/02/03 17:28:08;;;;;;;1999.90;999.90;;;;;;;4.80;81.89;163676.97;5009554;28;20053;-67
2022/02/03 18:03:59;;;;;;;1999.90;999.90;;;;;;;4.93;80.88;163712.63;5009599;28;20312;-67
2022/02/03 18:10:09;;;;;;;1999.90;999.90;;;;;;;4.73;81.47;163657.75;4997818;28;20080;-66
2022/02/03 18:30:57;;;;;;;1999.90;999.90;;;;;;;4.61;82.04;163624.84;5007411;28;20330;-66
2022/02/03 18:35:59;;;;;;;1999.90;999.90;;;;;;;4.70;82.07;163649.50;5013735;28;20356;-67
2022/02/03 19:03:02;;;;;;;1999.90;999.90;;;;;;;5.10;80.10;163756.53;5016021;28;20080;-68
2022/02/03 19:24:33;;;;;;;1999.90;999.90;;;;;;;5.15;79.15;163768.88;5031174;28;20053;-68
2022/02/03 19:56:32;;;;;;;1999.90;999.90;;;;;;;5.09;79.62;163753.78;5025435;28;20053;-68
2022/02/03 19:58:46;;;;;;;1999.90;999.90;;;;;;;3.99;83.17;163460.25;5009193;28;20104;-67
2022/02/03 20:06:10;;;;;;;1999.90;999.90;;;;;;;4.03;83.26;163471.22;5010107;28;20053;-67
2022/02/03 20:08:47;;;;;;;1999.90;999.90;;;;;;;4.08;83.01;163484.97;5022114;28;20176;-68
2022/02/03 20:11:16;;;;;;;1999.90;999.90;;;;;;;4.19;83.60;163513.75;5024077;28;20506;-67
2022/02/03 20:13:43;;;;;;;1999.90;999.90;;;;;;;3.88;83.77;163432.88;5020957;28;20062;-67
2022/02/03 20:16:11;;;;;;;1999.90;999.90;;;;;;;3.74;84.46;163393.06;5009243;28;20054;-68
2022/02/03 20:18:38;;;;;;;1999.90;999.90;;;;;;;3.56;85.22;163345.09;5015061;28;20111;-68
2022/02/03 20:21:04;;;;;;;1999.90;999.90;;;;;;;3.76;84.61;163398.59;5009146;28;20049;-67
2022/02/03 20:23:31;;;;;;;1999.90;999.90;;;;;;;3.74;84.71;163393.06;5013071;28;20055;-67
2022/02/03 20:25:58;;;;;;;1999.90;999.90;;;;;;;3.80;84.09;163410.91;5011142;28;20422;-67
2022/02/03 20:28:25;;;;;;;1999.90;999.90;;;;;;;3.93;84.13;163443.81;5009790;28;20079;-67
2022/02/03 20:30:52;;;;;;;1999.90;999.90;;;;;;;3.88;84.24;163432.88;5009431;28;20038;-67
2022/02/03 20:33:19;;;;;;;1999.90;999.90;;;;;;;3.90;84.01;163435.56;5019816;28;20053;-68
2022/02/03 20:35:45;;;;;;;1999.90;999.90;;;;;;;3.80;84.40;163410.91;5019643;28;20103;-68
2022/02/03 20:38:15;;;;;;;1999.90;999.90;;;;;;;4.11;84.34;163491.78;5017805;28;20054;-68
2022/02/03 20:40:45;;;;;;;1999.90;999.90;;;;;;;3.96;84.52;163453.44;5025175;28;20052;-68
2022/02/03 20:43:12;;;;;;;1999.90;999.90;;;;;;;3.98;84.39;163457.53;5008601;28;20335;-68
2022/02/03 20:45:40;;;;;;;1999.90;999.90;;;;;;;4.10;83.76;163490.44;5020869;28;20331;-68
2022/02/03 20:48:06;;;;;;;1999.90;999.90;;;;;;;3.85;84.51;163424.59;5009452;28;20096;-68
2022/02/03 20:50:36;;;;;;;1999.90;999.90;;;;;;;3.90;84.63;163435.56;5009041;28;20815;-68
2022/02/03 20:53:04;;;;;;;1999.90;999.90;;;;;;;3.83;84.96;163419.13;5009493;28;20054;-68
2022/02/03 20:55:30;;;;;;;1999.90;999.90;;;;;;;3.78;85.09;163404.03;5009138;28;20049;-69
2022/02/03 20:57:57;;;;;;;1999.90;999.90;;;;;;;3.56;86.00;163345.09;5009758;28;20050;-68
2022/02/03 21:00:28;;;;;;;1999.90;999.90;;;;;;;3.74;85.15;163394.47;5008684;28;20093;-68
2022/02/03 21:03:07;;;;;;;1999.90;999.90;;;;;;;3.88;84.95;163432.88;5009510;28;20147;-68
2022/02/03 21:05:33;;;;;;;1999.90;999.90;;;;;;;3.73;85.57;163390.34;5014091;28;20049;-67
2022/02/03 21:07:59;;;;;;;1999.90;999.90;;;;;;;3.59;85.55;163353.31;5017631;28;20057;-67
2022/02/03 21:10:31;;;;;;;1999.90;999.90;;;;;;;3.69;85.97;163380.72;5020426;28;20069;-68
2022/02/03 21:12:57;;;;;;;1999.90;999.90;;;;;;;4.00;85.18;163463.00;5009424;28;20046;-68
2022/02/03 21:15:31;;;;;;;1999.90;999.90;;;;;;;4.00;85.57;163463.00;5011510;28;20046;-67
2022/02/03 21:18:02;;;;;;;1999.90;999.90;;;;;;;4.15;85.76;163504.13;5010147;28;21156;-67
2022/02/03 21:20:28;;;;;;;1999.90;999.90;;;;;;;4.16;86.05;163506.88;5014299;28;20329;-67
2022/02/03 21:22:55;;;;;;;1999.90;999.90;;;;;;;3.78;87.73;163405.44;5014303;28;20288;-69
2022/02/03 21:25:32;;;;;;;1999.90;999.90;;;;;;;3.68;89.28;163378.03;5013455;28;20246;-68
2022/02/03 21:28:08;;;;;;;1999.90;999.90;;;;;;;3.68;89.77;163378.03;5012822;28;20167;-67
2022/02/03 21:30:35;;;;;;;1999.90;999.90;;;;;;;3.95;88.96;163449.31;5006927;28;20509;-68
2022/02/03 21:33:02;;;;;;;1999.90;999.90;;;;;;;3.87;89.02;163428.72;5008993;28;20053;-68
2022/02/03 21:35:29;;;;;;;1999.90;999.90;;;;;;;3.64;89.75;163367.03;5013513;28;20054;-68
2022/02/03 21:37:56;;;;;;;1999.90;999.90;;;;;;;3.46;91.10;163320.44;5009781;28;20431;-67
2022/02/03 21:40:24;;;;;;;1999.90;999.90;;;;;;;3.05;93.60;163210.84;5008701;28;20336;-67
2022/02/03 21:42:51;;;;;;;1999.90;999.90;;;;;;;2.95;94.41;163184.78;5009666;28;20053;-67
2022/02/03 21:45:22;;;;;;;1999.90;999.90;;;;;;;2.98;95.97;163191.66;5010223;28;20054;-68
2022/02/03 21:47:50;;;;;;;1999.90;999.90;;;;;;;2.81;98.18;163146.41;5010276;28;20066;-68
2022/02/03 21:50:17;;;;;;;1999.90;999.90;;;;;;;2.83;99.79;163151.91;5008145;28;20163;-68
2022/02/03 21:52:48;;;;;;;1999.90;999.90;;;;;;;2.56;100.00;163080.69;5013107;28;20083;-67
2022/02/03 21:55:16;;;;;;;1999.90;999.90;;;;;;;2.27;100.00;163002.59;5016127;28;20049;-68
2022/02/03 21:57:46;;;;;;;1999.90;999.90;;;;;;;2.37;100.00;163028.66;5011996;28;20395;-69
2022/02/03 22:00:15;;;;;;;1999.90;999.90;;;;;;;2.47;100.00;163056.00;5026655;28;20096;-68
2022/02/03 22:02:43;;;;;;;1999.90;999.90;;;;;;;2.38;100.00;163032.75;5012307;28;20046;-68
2022/02/03 22:05:12;;;;;;;1999.90;999.90;;;;;;;2.14;100.00;162968.34;5016318;28;20319;-68